< < Back
Terminal Aerodrome Forecast


Current Version              Previous Versions:   1  2  3  4  5  6  7  8  9  

Terminal Aerodrome Forecast

547
FTUS44 KBMX 010500
TAFANB
TAF
KANB 010525Z 0106/0206 00000KT P6SM SKC
      TEMPO 0108/0112 4SM BR
     FM011400 15003KT P6SM SKC=

Latest METAR

896
SAUS70 KWBC 011600 RRR
MTRANB
METAR KANB 011553Z AUTO 13003KT 10SM CLR 27/17 A3001 RMK AO2 SLP155
T02720172


USA.gov is the U.S. government's official web portal to all federal, state and local government web resources and services.